FW4352 Lynnwood WA US current weather conditions

sailwx.info

Wind from 269

Air temperature 18.3° C
Dewpoint 11.9° C

Last reported at 2020-Jul-14 18:55 UTC.
Time now 2020-Jul-14 19:55 UTC

Location: N 47°50' W 122°20'.
View on Google Maps.

See reports from other nearby stations

  
Tides and Currents Weather Stations Pressure Air Temp Water Temp Dewpoint Dewpoint Depression Visibility Wind Speed Wind Dir Waves Ship Positions
date/time (UTC)wind fromknots sea level pressurealtimeterstation pressurevisibilityair tempwater tempwave heightnotes
2020-Jul-14 18:55 269 18.3
2020-Jul-14 18:45 265 18.3
2020-Jul-14 18:35 272 18.3
2020-Jul-14 18:25 274 17.8
2020-Jul-14 18:15 276 17.8
2020-Jul-14 18:05 272 17.8
2020-Jul-14 17:55 272 17.8
2020-Jul-14 17:45 266 17.2
2020-Jul-14 17:35 268 17.2
2020-Jul-14 17:25 276 17.2
2020-Jul-14 14:05
2020-Jul-14 13:25
2020-Jul-14 13:15
2020-Jul-14 13:05
2020-Jul-14 12:35 10.0
2020-Jul-14 12:25 10.0
2020-Jul-14 12:15 10.0
2020-Jul-14 12:05 10.6
2020-Jul-14 11:55
2020-Jul-14 11:45
2020-Jul-14 11:35
2020-Jul-14 11:25
2020-Jul-14 11:15
2020-Jul-14 11:05
2020-Jul-14 10:45
2020-Jul-14 10:35
2020-Jul-14 10:25
2020-Jul-14 10:15
2020-Jul-14 10:05
2020-Jul-14 09:55
2020-Jul-14 09:45
2020-Jul-14 09:35
2020-Jul-14 09:25
2020-Jul-14 09:15 12.2
2020-Jul-14 09:05 12.8
2020-Jul-14 08:55 127 12.2
2020-Jul-14 08:45 127 12.8
2020-Jul-14 08:35 12.8
2020-Jul-14 08:25 12.8
2020-Jul-14 08:15 12.8
2020-Jul-14 08:05 12.8
2020-Jul-14 07:55 12.8
2020-Jul-14 07:45 121 13.3
2020-Jul-14 07:35 13.3
2020-Jul-14 07:25 13.3
2020-Jul-14 07:15 13.3
2020-Jul-14 07:05 13.3
2020-Jul-14 06:55 13.9
2020-Jul-14 06:45 13.9
2020-Jul-14 06:35 14.4
2020-Jul-14 06:25 14.4
2020-Jul-14 06:15
2020-Jul-14 06:05
2020-Jul-14 05:55
2020-Jul-14 05:45
2020-Jul-14 05:35
2020-Jul-14 05:25
2020-Jul-14 05:15 243 15.6
2020-Jul-14 05:05 243 16.1
2020-Jul-14 04:55 243 16.1
2020-Jul-14 04:45 281 16.1
2020-Jul-14 04:35 16.7
2020-Jul-14 04:25 16.7
2020-Jul-14 04:15 17.2
2020-Jul-14 04:05 251 17.2
2020-Jul-14 03:55 17.8
2020-Jul-14 03:45 17.8
2020-Jul-14 03:35 281 18.3
2020-Jul-14 03:25 18.3
2020-Jul-14 03:15 283 18.9
2020-Jul-14 03:05 271 18.9
2020-Jul-14 02:55 278 19.4
2020-Jul-14 02:45 263 20.0
2020-Jul-14 02:35 267 20.0
2020-Jul-14 02:25 267 20.6
2020-Jul-14 02:15 268 20.6
2020-Jul-14 02:05 268 21.1
2020-Jul-14 01:55 272 21.7
2020-Jul-14 01:45 275 21.7
2020-Jul-14 01:35 273 21.7
2020-Jul-14 01:25 283 21.7
2020-Jul-14 01:15 269 21.1
2020-Jul-14 01:05 267 0 gusting 4 21.1
2020-Jul-14 00:55 272 21.7
2020-Jul-14 00:45 284 21.1
2020-Jul-14 00:35 265 21.1
2020-Jul-14 00:25 266 0 gusting 3 21.1
2020-Jul-14 00:15 285 21.1
2020-Jul-14 00:05 264 0 gusting 5 21.1
2020-Jul-13 23:55 272 21.1
2020-Jul-13 23:52 261 0 gusting 3 21.1
2020-Jul-13 23:35 257 0 gusting 2 21.1
2020-Jul-13 23:25 274 21.1
2020-Jul-13 23:15 267 0 gusting 4 20.6
2020-Jul-13 23:05 270 20.6
2020-Jul-13 22:55 264 0 gusting 4 20.0
2020-Jul-13 22:45 271 19.4
2020-Jul-13 22:35 261 1 gusting 5 19.4
2020-Jul-13 22:25 274 0 gusting 4 19.4
2020-Jul-13 22:15 262 20.0
2020-Jul-13 22:05 300 0 gusting 4 19.4
2020-Jul-13 22:03 280 19.4
2020-Jul-13 21:45 260 18.3
2020-Jul-13 21:35 319 0 gusting 4 18.9
2020-Jul-13 21:25 263 0 gusting 3 18.3
2020-Jul-13 21:15 268 0 gusting 4 18.3
2020-Jul-13 21:05 256 0 gusting 3 18.3
2020-Jul-13 20:55 270 18.9
2020-Jul-13 20:45 350 18.9
2020-Jul-13 20:35 299 18.3
2020-Jul-13 20:25 279 0 gusting 5 17.8
2020-Jul-13 20:15 260 0 gusting 3 17.8
2020-Jul-13 20:05 276 0 gusting 4 17.8
2020-Jul-13 19:55 255 17.8
2020-Jul-13 19:45 280 17.8
2020-Jul-13 19:35 267 0 gusting 4 17.2
2020-Jul-13 19:25 254 17.2
2020-Jul-13 19:15 279 16.7
2020-Jul-13 19:05 269 16.7
2020-Jul-13 18:55 271 16.1
2020-Jul-13 18:45 272 16.1
2020-Jul-13 18:35 262 16.1
2020-Jul-13 18:25 266 15.6
2020-Jul-13 18:15 268 15.6
2020-Jul-13 18:05 268 15.6
2020-Jul-13 17:55 272 15.6
2020-Jul-13 17:45 276 15.6
2020-Jul-13 17:35 15.6
2020-Jul-13 17:25 268 15.6
2020-Jul-13 17:15 271 15.0
2020-Jul-13 17:05 287 14.4
2020-Jul-13 16:55 284 14.4
2020-Jul-13 16:45 294 13.9
2020-Jul-13 16:35 269 13.9
2020-Jul-13 16:25 276 13.9
2020-Jul-13 16:15 265 13.9
2020-Jul-13 16:05 313 13.9
2020-Jul-13 15:55 313 13.9
2020-Jul-13 15:45 287 13.9
2020-Jul-13 15:35 321 13.3
2020-Jul-13 15:25 277 13.3
2020-Jul-13 15:15 284 12.8
2020-Jul-13 15:05 027 12.8
2020-Jul-13 14:55 264 12.8
2020-Jul-13 14:45 243 12.8
2020-Jul-13 14:35 033 12.8
2020-Jul-13 14:25 314 12.8
2020-Jul-13 14:15 034 12.8
2020-Jul-13 14:05 311 12.2
2020-Jul-13 13:55 338 12.2
2020-Jul-13 13:45 029 11.7
2020-Jul-13 13:35 017 11.1
2020-Jul-13 13:25 11.1
2020-Jul-13 13:15 11.1
2020-Jul-13 13:05 010 10.6
2020-Jul-13 12:55 10.6
2020-Jul-13 12:45 10.6
2020-Jul-13 12:36 10.6
2020-Jul-13 12:25 317 10.6
2020-Jul-13 12:15 10.6
2020-Jul-13 12:05 10.6
2020-Jul-13 11:55 11.1
2020-Jul-13 11:45 11.1
2020-Jul-13 11:35 11.1
2020-Jul-13 11:25 11.1
2020-Jul-13 11:15 11.1
2020-Jul-13 11:05 11.1
2020-Jul-13 10:55 11.1
2020-Jul-13 10:45 11.1
2020-Jul-13 10:35 045 11.7
2020-Jul-13 10:25 11.7
2020-Jul-13 10:15 317 11.7
2020-Jul-13 10:05 349 11.7
2020-Jul-13 09:55 099 11.7
2020-Jul-13 09:45 11.7
2020-Jul-13 09:35 021 11.7
2020-Jul-13 09:25 088 11.7
2020-Jul-13 09:15 132 11.7
2020-Jul-13 09:05 11.7
2020-Jul-13 08:55 11.7
2020-Jul-13 08:45 085 12.2
2020-Jul-13 08:35 114 12.2
2020-Jul-13 08:25 114 12.2
2020-Jul-13 08:15 058 12.2
2020-Jul-13 08:05 076 12.2
2020-Jul-13 07:55 100 12.8
2020-Jul-13 07:45 083 12.8
2020-Jul-13 07:35 12.8
2020-Jul-13 07:25 346 12.8
2020-Jul-13 07:15 326 12.8
2020-Jul-13 07:05 343 12.8
2020-Jul-13 06:55 324 12.8
2020-Jul-13 06:45 042 13.3
2020-Jul-13 06:35 13.3
2020-Jul-13 06:25 030 13.3
2020-Jul-13 06:15 019 0 gusting 4 13.3
2020-Jul-13 06:05 019 13.3
2020-Jul-13 05:55 057 13.9
2020-Jul-13 05:45 355 13.9
2020-Jul-13 05:35 093 14.4
2020-Jul-13 05:25 045 14.4
2020-Jul-13 05:15 328 14.4
2020-Jul-13 05:05 338 0 gusting 5 14.4
2020-Jul-13 04:55 15.0
2020-Jul-13 04:45 350 15.0
2020-Jul-13 04:35 15.0
2020-Jul-13 04:25 304 15.6
2020-Jul-13 04:15 328 15.6
2020-Jul-13 04:05 253 16.1
2020-Jul-13 03:55 253 16.1
2020-Jul-13 03:45 16.1
2020-Jul-13 03:35 337 16.1
2020-Jul-13 03:25 16.1
2020-Jul-13 03:15 348 16.1
2020-Jul-13 03:05 100 16.1
2020-Jul-13 02:55 312 16.1
2020-Jul-13 02:45 015 0 gusting 4 16.7
2020-Jul-13 02:35 009 0 gusting 4 16.7
2020-Jul-13 02:25 349 1 gusting 5 17.2
2020-Jul-13 02:15 334 17.2
2020-Jul-13 02:05 120 17.8
2020-Jul-13 01:55 359 17.8
2020-Jul-13 01:45 359 0 gusting 3 17.8
2020-Jul-13 01:35 113 17.8
2020-Jul-13 01:25 110 17.8
2020-Jul-13 01:15 295 17.8
2020-Jul-13 01:05 004 0 gusting 3 17.8
2020-Jul-13 00:55 326 18.3
2020-Jul-13 00:45 269 18.3
2020-Jul-13 00:35 272 18.9
2020-Jul-13 00:25 262 18.9
2020-Jul-13 00:15 278 0 gusting 4 18.9
2020-Jul-13 00:05 267 0 gusting 5 18.9
2020-Jul-12 23:55 259 18.9
2020-Jul-12 23:45 265 18.9
2020-Jul-12 23:35 289 18.3
2020-Jul-12 23:25 268 0 gusting 5 18.9
2020-Jul-12 23:15 268 0 gusting 3 18.3
2020-Jul-12 23:05 269 0 gusting 4 18.3
2020-Jul-12 22:55 269 0 gusting 5 18.9
2020-Jul-12 22:45 292 18.9
2020-Jul-12 22:35 263 0 gusting 4 18.9
2020-Jul-12 22:25 278 18.9
2020-Jul-12 22:15 258 0 gusting 5 18.9
2020-Jul-12 22:05 270 18.3
2020-Jul-12 21:55 320 0 gusting 4 18.3
2020-Jul-12 21:45 260 0 gusting 4 18.3
2020-Jul-12 21:35 284 18.3
2020-Jul-12 21:25 275 18.3
2020-Jul-12 21:15 290 0 gusting 3 17.8
2020-Jul-12 21:05 261 0 gusting 3 17.8
2020-Jul-12 20:55 271 17.8
2020-Jul-12 20:45 284 17.2
2020-Jul-12 20:35 268 17.2
2020-Jul-12 20:25 268 17.2
2020-Jul-12 20:15 349 17.2
2020-Jul-12 20:05 257 16.7
2020-Jul-12 19:55 266 0 gusting 3 16.7
2020-Jul-12 19:45 012 16.7
2020-Jul-12 19:35 272 16.7
2020-Jul-12 19:25 277 16.7
2020-Jul-12 19:15 266 16.7
2020-Jul-12 19:05 16.1